Koun Maru — JK5556 — position and weather

sailwx.info

Track history (hours):
 
Tides and Currents Weather Stations Pressure Air Temp Water Temp Dewpoint Dewpoint Depression Visibility Wind Speed Wind Dir Waves Ship Positions

Koun Maru

Last reported at 2017-Mar-23 08:33 UTC. Time now 2017-Mar-24 00:03 UTC.
Position N 34°39' E 135°25'.

Length 40 m.

Type: Tanker. MMSI: 431401871.

Date/timePositionNaut miles runAvg speedWind from/ knotsBaromVisibWave heightAir tempDewpointWater temp
2017-Mar-23 08:33N 34°39' E 135°25'1010.4
2017-Mar-23 07:34N 34°41' E 135°12'0 0.1
2017-Mar-23 06:33N 34°41' E 135°12'0 0.0
2017-Mar-23 05:31N 34°41' E 135°12'0 0.2
2017-Mar-23 04:30N 34°41' E 135°12'0 0.0
2017-Mar-23 03:30N 34°41' E 135°12'0 0.0
2017-Mar-23 02:30N 34°41' E 135°12'0 0.0
2017-Mar-23 01:33N 34°41' E 135°12'13 4.1
2017-Mar-22 22:21N 34°33' E 135°25'6 0.3
2017-Mar-22 02:08N 34°40' E 135°23'610.5
2017-Mar-22 01:33N 34°42' E 135°16'1 0.7
2017-Mar-22 00:32N 34°42' E 135°16'0 0.0
2017-Mar-21 23:32N 34°42' E 135°16'8 7.5
2017-Mar-21 22:31N 34°39' E 135°24'4 0.2
2017-Mar-21 03:25N 34°36' E 135°24'26 8.9
2017-Mar-21 00:26N 34°13' E 135°07'1 1.3
2017-Mar-20 23:32N 34°13' E 135°09'1 0.7
2017-Mar-20 22:33N 34°13' E 135°08'0 0.0
2017-Mar-20 21:10N 34°13' E 135°08'0 0.0
2017-Mar-20 20:28N 34°13' E 135°08'0 0.0
2017-Mar-20 19:28N 34°13' E 135°08'0 0.0
2017-Mar-20 18:28N 34°13' E 135°08'0 0.0
2017-Mar-20 17:28N 34°13' E 135°08'0 0.0
2017-Mar-20 16:25N 34°13' E 135°08'0 0.0
2017-Mar-20 15:26N 34°13' E 135°08'0 0.0
2017-Mar-20 14:30N 34°13' E 135°08'0 0.0
2017-Mar-20 13:30N 34°13' E 135°08'0 0.0
2017-Mar-20 11:33N 34°13' E 135°08'0 0.0
2017-Mar-20 10:24N 34°13' E 135°08'0 0.0
2017-Mar-20 03:30N 34°13' E 135°08'27 5.3
2017-Mar-19 22:18N 34°36' E 135°25'  
2017-Mar-16 05:33N 34°36' E 135°24'16 0.3
2017-Mar-14 06:28N 34°37' E 135°05'  
Track history (hours):
 
Tides and Currents Weather Stations Pressure Air Temp Water Temp Dewpoint Dewpoint Depression Visibility Wind Speed Wind Dir Waves Ship Positions

Koun Maru

Last reported at 2017-Mar-23 08:33 UTC. Time now 2017-Mar-24 00:03 UTC.
Position N 34°39' E 135°25'.

Length 40 m.

Type: Tanker. MMSI: 431401871.

Date/timePositionNaut miles runAvg speedWind from/ knotsBaromVisibWave heightAir tempDewpointWater temp
2017-Mar-23 08:33N 34°39' E 135°25'1010.4
2017-Mar-23 07:34N 34°41' E 135°12'0 0.1
2017-Mar-23 06:33N 34°41' E 135°12'0 0.0
2017-Mar-23 05:31N 34°41' E 135°12'0 0.2
2017-Mar-23 04:30N 34°41' E 135°12'0 0.0
2017-Mar-23 03:30N 34°41' E 135°12'0 0.0
2017-Mar-23 02:30N 34°41' E 135°12'0 0.0
2017-Mar-23 01:33N 34°41' E 135°12'13 4.1
2017-Mar-22 22:21N 34°33' E 135°25'6 0.3
2017-Mar-22 02:08N 34°40' E 135°23'610.5
2017-Mar-22 01:33N 34°42' E 135°16'1 0.7
2017-Mar-22 00:32N 34°42' E 135°16'0 0.0
2017-Mar-21 23:32N 34°42' E 135°16'8 7.5
2017-Mar-21 22:31N 34°39' E 135°24'4 0.2
2017-Mar-21 03:25N 34°36' E 135°24'26 8.9
2017-Mar-21 00:26N 34°13' E 135°07'1 1.3
2017-Mar-20 23:32N 34°13' E 135°09'1 0.7
2017-Mar-20 22:33N 34°13' E 135°08'0 0.0
2017-Mar-20 21:10N 34°13' E 135°08'0 0.0
2017-Mar-20 20:28N 34°13' E 135°08'0 0.0
2017-Mar-20 19:28N 34°13' E 135°08'0 0.0
2017-Mar-20 18:28N 34°13' E 135°08'0 0.0
2017-Mar-20 17:28N 34°13' E 135°08'0 0.0
2017-Mar-20 16:25N 34°13' E 135°08'0 0.0
2017-Mar-20 15:26N 34°13' E 135°08'0 0.0
2017-Mar-20 14:30N 34°13' E 135°08'0 0.0
2017-Mar-20 13:30N 34°13' E 135°08'0 0.0
2017-Mar-20 11:33N 34°13' E 135°08'0 0.0
2017-Mar-20 10:24N 34°13' E 135°08'0 0.0
2017-Mar-20 03:30N 34°13' E 135°08'27 5.3
2017-Mar-19 22:18N 34°36' E 135°25'  
2017-Mar-16 05:33N 34°36' E 135°24'16 0.3
2017-Mar-14 06:28N 34°37' E 135°05'  

Dump ship's entire track history